Time;durP1;ratioP1;P1;durP2;ratioP2;P2;SDS_P1;SDS_P2;PMS_P1;PMS_P2;Temp;Humidity;BMP_temperature;BMP_pressure;BME280_temperature;BME280_humidity;BME280_pressure;Samples;Min_cycle;Max_cycle;Signal;HPM_P1;HPM_P2
2023/05/16 00:01:23;;;;;;;9.10;8.20;;;14.70;99.90;;;;;;5078704;28;20454;-68
2023/05/16 00:03:50;;;;;;;9.80;9.00;;;14.70;99.90;;;;;;5078218;28;20466;-68
2023/05/16 00:06:19;;;;;;;9.70;8.90;;;14.70;99.90;;;;;;5078587;28;20535;-68
2023/05/16 00:08:45;;;;;;;10.47;9.50;;;14.60;99.90;;;;;;5077754;28;20450;-68
2023/05/16 00:11:12;;;;;;;10.90;9.23;;;14.60;99.90;;;;;;5078304;28;20493;-68
2023/05/16 00:13:41;;;;;;;9.70;8.80;;;14.50;99.90;;;;;;5078483;28;20454;-69
2023/05/16 00:16:08;;;;;;;10.40;9.50;;;14.40;99.90;;;;;;5077253;28;20461;-69
2023/05/16 00:18:36;;;;;;;11.40;9.77;;;14.40;99.90;;;;;;5078472;28;20800;-68
2023/05/16 00:21:03;;;;;;;10.53;9.43;;;14.40;99.90;;;;;;5077579;28;20458;-69
2023/05/16 00:23:32;;;;;;;10.00;9.00;;;14.40;99.90;;;;;;5077805;28;20545;-69
2023/05/16 00:25:59;;;;;;;10.73;9.73;;;14.30;99.90;;;;;;5076867;28;20998;-68
2023/05/16 00:28:25;;;;;;;10.73;9.57;;;14.30;99.90;;;;;;5077283;28;20537;-69
2023/05/16 00:30:52;;;;;;;10.30;9.40;;;14.20;99.90;;;;;;5078413;28;20548;-68
2023/05/16 00:33:19;;;;;;;12.30;11.10;;;14.20;99.90;;;;;;5078766;28;20489;-69
2023/05/16 00:35:46;;;;;;;11.73;10.63;;;14.10;99.90;;;;;;5078350;28;20454;-68
2023/05/16 00:38:13;;;;;;;10.87;9.77;;;14.10;99.90;;;;;;5078908;28;20602;-68
2023/05/16 00:40:41;;;;;;;13.40;10.73;;;14.00;99.90;;;;;;5080349;28;20434;-69
2023/05/16 00:43:08;;;;;;;14.17;10.90;;;14.00;99.90;;;;;;5081507;28;20577;-69
2023/05/16 00:45:35;;;;;;;12.70;11.40;;;14.00;99.90;;;;;;5082509;28;20572;-68
2023/05/16 00:48:02;;;;;;;13.97;11.20;;;14.00;99.90;;;;;;5082501;28;20489;-69
2023/05/16 00:50:29;;;;;;;12.30;10.80;;;14.00;99.90;;;;;;5082151;28;20462;-69
2023/05/16 00:52:56;;;;;;;12.60;11.40;;;13.90;99.90;;;;;;5080384;28;20451;-68
2023/05/16 00:55:23;;;;;;;12.40;11.30;;;13.80;99.90;;;;;;5082056;28;20509;-67
2023/05/16 00:57:52;;;;;;;13.47;12.10;;;13.80;99.90;;;;;;5083834;28;20514;-68
2023/05/16 01:00:19;;;;;;;13.13;11.93;;;13.80;99.90;;;;;;5082659;28;20521;-68
2023/05/16 01:02:46;;;;;;;13.93;12.47;;;13.70;99.90;;;;;;5083276;28;20461;-69
2023/05/16 01:05:13;;;;;;;14.03;12.70;;;13.70;99.90;;;;;;5084617;28;20459;-69
2023/05/16 01:07:40;;;;;;;16.33;14.13;;;13.80;99.90;;;;;;5085416;28;20826;-69
2023/05/16 01:10:08;;;;;;;16.23;14.50;;;13.70;99.90;;;;;;5086081;28;20458;-69
2023/05/16 01:12:41;;;;;;;14.83;13.30;;;13.60;99.90;;;;;;5085624;28;20922;-68
2023/05/16 01:15:13;;;;;;;16.33;14.83;;;13.60;99.90;;;;;;5085402;28;20457;-68
2023/05/16 01:17:51;;;;;;;17.97;16.17;;;13.60;99.90;;;;;;5083267;28;20466;-69
2023/05/16 01:20:28;;;;;;;17.00;15.23;;;13.40;99.90;;;;;;5083813;28;20430;-69
2023/05/16 01:23:07;;;;;;;19.50;17.40;;;13.40;99.90;;;;;;5084955;28;20458;-68
2023/05/16 01:25:51;;;;;;;18.67;16.47;;;13.30;99.90;;;;;;5084400;28;20449;-69
2023/05/16 01:28:20;;;;;;;19.93;16.93;;;13.30;99.90;;;;;;5084443;28;20473;-69
2023/05/16 01:30:47;;;;;;;19.30;17.30;;;13.20;99.90;;;;;;5083682;28;20478;-68
2023/05/16 01:33:14;;;;;;;18.50;16.57;;;13.20;99.90;;;;;;5083381;28;20529;-68
2023/05/16 01:35:52;;;;;;;21.53;18.13;;;13.20;99.90;;;;;;5082965;28;20473;-68
2023/05/16 01:38:24;;;;;;;21.17;18.80;;;13.00;99.90;;;;;;5084974;28;20496;-70
2023/05/16 01:40:55;;;;;;;21.67;19.40;;;13.00;99.90;;;;;;5084997;28;20462;-68
2023/05/16 01:43:33;;;;;;;20.03;17.90;;;13.10;99.90;;;;;;5084209;28;20453;-68
2023/05/16 01:46:08;;;;;;;19.20;17.30;;;13.00;99.90;;;;;;5084500;28;20461;-70
2023/05/16 01:48:43;;;;;;;23.37;16.27;;;12.80;99.90;;;;;;5083960;28;20465;-69
2023/05/16 01:51:12;;;;;;;23.40;18.10;;;12.80;99.90;;;;;;5084979;28;20457;-69
2023/05/16 01:53:39;;;;;;;20.53;17.93;;;12.80;99.90;;;;;;5083574;28;20993;-69
2023/05/16 01:56:15;;;;;;;19.10;16.80;;;12.60;99.90;;;;;;5084335;28;20474;-68
2023/05/16 01:58:45;;;;;;;21.40;17.20;;;12.60;99.90;;;;;;5081949;28;20438;-68
2023/05/16 02:01:13;;;;;;;16.63;14.93;;;12.40;99.90;;;;;;5081586;28;20830;-67
2023/05/16 02:03:40;;;;;;;20.10;16.47;;;12.40;99.90;;;;;;5074650;28;20454;-68
2023/05/16 02:06:07;;;;;;;18.67;16.60;;;12.40;99.90;;;;;;5077351;28;20557;-66
2023/05/16 02:08:34;;;;;;;21.37;17.43;;;12.40;99.90;;;;;;5077582;28;20777;-66
2023/05/16 02:11:01;;;;;;;19.67;16.97;;;12.20;99.90;;;;;;5077128;28;20936;-66
2023/05/16 02:13:28;;;;;;;19.20;17.20;;;12.10;99.90;;;;;;5077060;28;20464;-66
2023/05/16 02:15:56;;;;;;;21.93;17.30;;;12.00;99.90;;;;;;5077001;28;20494;-66
2023/05/16 02:18:23;;;;;;;18.43;16.50;;;11.90;99.90;;;;;;5076996;28;20460;-66
2023/05/16 02:20:50;;;;;;;22.10;15.97;;;11.80;99.90;;;;;;5076986;28;20942;-66
2023/05/16 02:23:17;;;;;;;19.73;17.07;;;11.80;99.90;;;;;;5076922;28;20787;-66
2023/05/16 02:25:44;;;;;;;20.50;16.07;;;11.80;99.90;;;;;;5076911;28;20540;-66
2023/05/16 02:28:10;;;;;;;17.13;15.43;;;11.70;99.90;;;;;;5077102;28;20539;-66
2023/05/16 02:30:37;;;;;;;22.37;18.97;;;11.70;99.90;;;;;;5076767;28;20454;-66
2023/05/16 02:33:06;;;;;;;21.10;17.60;;;11.50;99.90;;;;;;5077008;28;20454;-66
2023/05/16 02:35:32;;;;;;;27.90;16.97;;;11.50;99.90;;;;;;5077052;28;20584;-66
2023/05/16 02:37:59;;;;;;;21.27;16.67;;;11.50;99.90;;;;;;5076814;28;20478;-66
2023/05/16 02:40:26;;;;;;;19.80;17.70;;;11.50;99.90;;;;;;5076834;28;21012;-66
2023/05/16 02:42:53;;;;;;;19.80;16.20;;;11.50;99.90;;;;;;5076616;28;20462;-66
2023/05/16 02:45:20;;;;;;;20.10;15.90;;;11.50;99.90;;;;;;5076861;28;20480;-66
2023/05/16 02:47:47;;;;;;;22.10;16.57;;;11.50;99.90;;;;;;5076521;28;20469;-66
2023/05/16 02:50:15;;;;;;;20.80;18.57;;;11.50;99.90;;;;;;5076885;28;20501;-66
2023/05/16 02:52:42;;;;;;;20.00;17.90;;;11.60;99.90;;;;;;5076757;28;20742;-66
2023/05/16 02:55:10;;;;;;;21.53;17.10;;;11.50;99.90;;;;;;5076536;28;20933;-66
2023/05/16 02:57:37;;;;;;;20.07;16.97;;;11.50;99.90;;;;;;5077005;28;20481;-66
2023/05/16 03:00:05;;;;;;;23.67;17.40;;;11.40;99.90;;;;;;5076590;28;20455;-66
2023/05/16 03:02:31;;;;;;;22.47;18.37;;;11.50;99.90;;;;;;5076770;28;20450;-69
2023/05/16 03:04:58;;;;;;;18.23;16.23;;;11.50;99.90;;;;;;5076741;28;20545;-67
2023/05/16 03:07:26;;;;;;;19.03;16.73;;;11.50;99.90;;;;;;5076309;28;20461;-68
2023/05/16 03:09:53;;;;;;;20.90;17.13;;;11.50;99.90;;;;;;5076748;28;20497;-67
2023/05/16 03:12:20;;;;;;;24.13;18.80;;;11.40;99.90;;;;;;5077006;28;20770;-68
2023/05/16 03:14:47;;;;;;;24.40;18.37;;;11.40;99.90;;;;;;5075587;28;20553;-68
2023/05/16 03:17:14;;;;;;;20.50;18.40;;;11.40;99.90;;;;;;5076118;28;20969;-68
2023/05/16 03:19:41;;;;;;;19.20;17.20;;;11.40;99.90;;;;;;5076496;28;20464;-68
2023/05/16 03:22:07;;;;;;;19.70;17.40;;;11.40;99.90;;;;;;5076384;28;21002;-68
2023/05/16 03:24:36;;;;;;;19.20;17.17;;;11.30;99.90;;;;;;5076140;28;20454;-68
2023/05/16 03:27:03;;;;;;;21.07;18.00;;;11.30;99.90;;;;;;5075966;28;20451;-68
2023/05/16 03:29:30;;;;;;;20.57;17.40;;;11.40;99.90;;;;;;5075932;28;20465;-68
2023/05/16 03:31:57;;;;;;;21.40;18.63;;;11.40;99.90;;;;;;5075883;28;20468;-69
2023/05/16 03:34:24;;;;;;;19.47;17.20;;;11.40;99.90;;;;;;5076212;28;20454;-68
2023/05/16 03:36:52;;;;;;;20.67;18.47;;;11.40;99.90;;;;;;5076160;28;20503;-68
2023/05/16 03:39:19;;;;;;;20.07;17.27;;;11.50;99.90;;;;;;5075537;28;20481;-68
2023/05/16 03:41:47;;;;;;;23.03;18.20;;;11.50;99.90;;;;;;5075610;28;20555;-68
2023/05/16 03:44:14;;;;;;;20.90;18.73;;;11.50;99.90;;;;;;5076200;28;20464;-68
2023/05/16 03:46:41;;;;;;;22.37;18.10;;;11.40;99.90;;;;;;5075820;28;20515;-68
2023/05/16 03:49:07;;;;;;;22.83;18.40;;;11.40;99.90;;;;;;5075890;28;20792;-68
2023/05/16 03:51:34;;;;;;;23.30;17.80;;;11.50;99.90;;;;;;5075672;28;20997;-68
2023/05/16 03:54:01;;;;;;;24.40;18.63;;;11.40;99.90;;;;;;5075811;28;20560;-68
2023/05/16 03:56:28;;;;;;;22.40;20.03;;;11.40;99.90;;;;;;5075706;28;20537;-68
2023/05/16 03:58:57;;;;;;;27.93;19.87;;;11.40;99.90;;;;;;5075912;28;20569;-68
2023/05/16 04:01:24;;;;;;;21.07;18.33;;;11.40;99.90;;;;;;5075652;28;20458;-68
2023/05/16 04:03:51;;;;;;;24.57;17.30;;;11.30;99.90;;;;;;5075993;28;20492;-68
2023/05/16 04:06:18;;;;;;;23.77;19.57;;;11.20;99.90;;;;;;5075850;28;20545;-68
2023/05/16 04:08:44;;;;;;;22.77;19.50;;;11.20;99.90;;;;;;5075523;28;20508;-68
2023/05/16 04:11:12;;;;;;;23.87;20.23;;;11.20;99.90;;;;;;5075676;28;20541;-68
2023/05/16 04:13:38;;;;;;;24.77;20.00;;;11.30;99.90;;;;;;5075591;28;20458;-68
2023/05/16 04:16:07;;;;;;;24.33;17.57;;;11.30;99.90;;;;;;5075887;28;20560;-67
2023/05/16 04:18:34;;;;;;;25.97;19.47;;;11.30;99.90;;;;;;5075002;28;20889;-67
2023/05/16 04:21:01;;;;;;;22.57;20.17;;;11.40;99.90;;;;;;5075013;28;20553;-67
2023/05/16 04:23:28;;;;;;;20.93;17.93;;;11.40;99.90;;;;;;5075167;28;20612;-66
2023/05/16 04:25:56;;;;;;;22.63;19.43;;;11.40;99.90;;;;;;5084628;28;20489;-68
2023/05/16 04:28:22;;;;;;;24.83;18.70;;;11.40;99.90;;;;;;5087102;28;20446;-68
2023/05/16 04:30:50;;;;;;;23.30;18.53;;;11.40;99.90;;;;;;5086343;28;20450;-68
2023/05/16 04:33:18;;;;;;;28.10;18.93;;;11.30;99.90;;;;;;5085961;28;20466;-68
2023/05/16 04:35:45;;;;;;;21.93;19.63;;;11.30;99.90;;;;;;5082787;28;20487;-69
2023/05/16 04:38:12;;;;;;;24.80;19.70;;;11.10;99.90;;;;;;5080566;28;20510;-69
2023/05/16 04:40:39;;;;;;;22.83;19.00;;;10.80;99.90;;;;;;5078927;28;20521;-69
2023/05/16 04:43:06;;;;;;;25.73;20.37;;;10.80;99.90;;;;;;5080215;28;20470;-69
2023/05/16 04:45:33;;;;;;;22.47;19.57;;;10.80;99.90;;;;;;5081858;28;20804;-68
2023/05/16 04:48:01;;;;;;;26.90;21.60;;;10.80;99.90;;;;;;5082902;28;20450;-67
2023/05/16 04:50:29;;;;;;;25.53;18.97;;;10.90;99.90;;;;;;5085462;28;20492;-67
2023/05/16 04:52:56;;;;;;;30.20;20.60;;;10.90;99.90;;;;;;5085506;28;20461;-67
2023/05/16 04:55:23;;;;;;;25.20;20.90;;;11.00;99.90;;;;;;5087159;28;20522;-68
2023/05/16 04:57:50;;;;;;;31.10;19.83;;;11.00;99.90;;;;;;5081314;28;20489;-67
2023/05/16 05:00:18;;;;;;;28.07;21.17;;;10.80;99.90;;;;;;5082492;28;20541;-67
2023/05/16 05:02:45;;;;;;;27.67;19.07;;;10.80;99.90;;;;;;5080923;28;20467;-67
2023/05/16 05:05:12;;;;;;;25.93;19.30;;;10.80;99.90;;;;;;5081184;28;20603;-68
2023/05/16 05:07:42;;;;;;;25.33;20.97;;;10.70;99.90;;;;;;5082287;28;20521;-69
2023/05/16 05:10:10;;;;;;;30.20;20.20;;;10.70;99.90;;;;;;5079511;28;20557;-69
2023/05/16 05:12:37;;;;;;;27.33;19.80;;;10.60;99.90;;;;;;5079566;28;20544;-69
2023/05/16 05:15:05;;;;;;;26.83;19.87;;;10.70;99.90;;;;;;5080002;28;20854;-67
2023/05/16 05:17:32;;;;;;;26.10;19.50;;;10.70;99.90;;;;;;5079796;28;20484;-67
2023/05/16 05:19:59;;;;;;;31.67;19.80;;;10.60;99.90;;;;;;5080293;28;20855;-68
2023/05/16 05:22:26;;;;;;;26.60;20.47;;;10.60;99.90;;;;;;5081001;28;20519;-68
2023/05/16 05:24:54;;;;;;;23.57;19.03;;;10.70;99.90;;;;;;5081499;28;20492;-67
2023/05/16 05:27:21;;;;;;;26.17;18.80;;;10.80;99.90;;;;;;5083760;28;20450;-67
2023/05/16 05:29:48;;;;;;;22.70;18.50;;;10.90;99.90;;;;;;5081326;28;20544;-69
2023/05/16 05:32:15;;;;;;;27.23;17.70;;;10.80;99.90;;;;;;5079435;28;20497;-69
2023/05/16 05:34:42;;;;;;;21.67;15.83;;;10.80;99.90;;;;;;5081952;28;20449;-69
2023/05/16 05:37:09;;;;;;;17.70;15.37;;;10.90;99.90;;;;;;5082271;28;20458;-69
2023/05/16 05:39:36;;;;;;;17.77;15.23;;;10.90;99.90;;;;;;5085074;28;20577;-69
2023/05/16 05:42:04;;;;;;;22.13;14.40;;;10.90;99.90;;;;;;5087617;28;20478;-69
2023/05/16 05:44:32;;;;;;;21.60;15.50;;;10.90;99.90;;;;;;5089041;28;20537;-69
2023/05/16 05:46:59;;;;;;;18.83;14.50;;;11.00;99.90;;;;;;5089100;28;20496;-69
2023/05/16 05:49:27;;;;;;;17.60;15.27;;;11.10;99.90;;;;;;5087951;28;20454;-69
2023/05/16 05:51:53;;;;;;;19.43;15.17;;;11.00;99.90;;;;;;5089510;28;20540;-69
2023/05/16 05:54:20;;;;;;;19.37;16.37;;;11.10;99.90;;;;;;5085173;28;20521;-69
2023/05/16 05:56:47;;;;;;;17.97;16.07;;;11.00;99.90;;;;;;5087230;28;20474;-69
2023/05/16 05:59:15;;;;;;;19.70;15.00;;;11.00;99.90;;;;;;5088615;28;20561;-69
2023/05/16 06:01:43;;;;;;;24.27;14.90;;;11.00;99.90;;;;;;5086709;28;20469;-69
2023/05/16 06:04:10;;;;;;;17.03;13.90;;;11.00;99.90;;;;;;5090145;28;20454;-70
2023/05/16 06:06:38;;;;;;;17.07;14.07;;;11.00;99.90;;;;;;5087403;28;20529;-69
2023/05/16 06:09:05;;;;;;;18.10;12.90;;;11.00;99.90;;;;;;5085202;28;20522;-69
2023/05/16 06:11:32;;;;;;;21.63;12.80;;;11.00;99.90;;;;;;5088383;28;20454;-69
2023/05/16 06:13:59;;;;;;;17.80;13.60;;;10.90;99.90;;;;;;5088013;28;20545;-70
2023/05/16 06:16:27;;;;;;;16.10;13.03;;;11.00;99.90;;;;;;5083851;28;20453;-69
2023/05/16 06:18:54;;;;;;;15.60;13.53;;;11.00;99.90;;;;;;5085301;28;20566;-69
2023/05/16 06:21:21;;;;;;;18.93;12.40;;;11.10;99.90;;;;;;5085549;28;20481;-69
2023/05/16 06:23:48;;;;;;;17.83;13.07;;;11.00;99.90;;;;;;5086876;28;20768;-69
2023/05/16 06:26:15;;;;;;;15.10;12.23;;;11.10;99.90;;;;;;5088398;28;20485;-69
2023/05/16 06:28:42;;;;;;;15.50;13.00;;;11.10;99.90;;;;;;5087433;28;20482;-70
2023/05/16 06:31:09;;;;;;;17.20;12.30;;;11.10;99.90;;;;;;5090372;28;20510;-68
2023/05/16 06:33:37;;;;;;;13.20;11.37;;;11.20;99.90;;;;;;5090062;28;20454;-68
2023/05/16 06:36:04;;;;;;;13.63;11.83;;;11.30;99.90;;;;;;5090461;28;20482;-68
2023/05/16 06:38:31;;;;;;;13.87;11.40;;;11.40;99.90;;;;;;5090411;28;20569;-68
2023/05/16 06:40:58;;;;;;;12.30;11.07;;;11.50;99.90;;;;;;5086488;28;20442;-69
2023/05/16 06:43:25;;;;;;;12.40;10.47;;;11.40;99.90;;;;;;5088099;28;20505;-70
2023/05/16 06:45:52;;;;;;;17.30;10.90;;;11.40;99.90;;;;;;5088429;28;20454;-69
2023/05/16 06:48:19;;;;;;;12.33;9.80;;;11.40;99.90;;;;;;5088307;28;20584;-69
2023/05/16 06:50:49;;;;;;;12.30;10.93;;;11.50;99.90;;;;;;5086140;28;20459;-68
2023/05/16 06:53:16;;;;;;;12.10;10.80;;;11.60;99.90;;;;;;5089299;28;20438;-68
2023/05/16 06:55:43;;;;;;;9.83;8.83;;;11.60;99.90;;;;;;5088253;28;20450;-69
2023/05/16 06:58:10;;;;;;;12.60;9.90;;;11.70;99.90;;;;;;5086927;28;20474;-69
2023/05/16 07:00:37;;;;;;;10.60;9.40;;;11.70;99.90;;;;;;5087131;28;20555;-69
2023/05/16 07:03:05;;;;;;;13.43;8.80;;;11.60;99.90;;;;;;5088624;28;20549;-69
2023/05/16 07:05:31;;;;;;;12.03;9.20;;;11.70;99.90;;;;;;5087505;28;20454;-69
2023/05/16 07:08:00;;;;;;;9.67;8.77;;;11.60;99.90;;;;;;5085962;28;20578;-68
2023/05/16 07:10:27;;;;;;;10.20;8.53;;;11.50;99.90;;;;;;5083071;28;20452;-70
2023/05/16 07:12:54;;;;;;;12.77;8.43;;;11.40;99.90;;;;;;5088774;28;20450;-69
2023/05/16 07:15:21;;;;;;;9.80;7.90;;;11.40;99.90;;;;;;5087551;28;20470;-69
2023/05/16 07:17:49;;;;;;;9.00;8.13;;;11.40;99.90;;;;;;5082019;28;20525;-68
2023/05/16 07:20:16;;;;;;;9.27;7.93;;;11.40;99.90;;;;;;5084767;28;20446;-69
2023/05/16 07:22:43;;;;;;;9.23;7.13;;;11.20;99.90;;;;;;5082681;28;20458;-69
2023/05/16 07:25:13;;;;;;;11.90;10.33;;;11.30;99.90;;;;;;5086391;28;20481;-69
2023/05/16 07:27:43;;;;;;;8.20;7.27;;;11.40;99.90;;;;;;5083993;28;20458;-68
2023/05/16 07:30:11;;;;;;;8.57;6.70;;;11.40;99.90;;;;;;5081849;28;20914;-68
2023/05/16 07:32:38;;;;;;;7.73;6.63;;;11.30;99.90;;;;;;5082269;28;20549;-68
2023/05/16 07:35:05;;;;;;;9.93;6.40;;;11.20;99.90;;;;;;5086618;28;20465;-69
2023/05/16 07:37:32;;;;;;;11.47;6.17;;;11.30;99.90;;;;;;5087807;28;20450;-68
2023/05/16 07:39:59;;;;;;;7.23;5.70;;;11.40;99.90;;;;;;5085113;28;20565;-68
2023/05/16 07:42:27;;;;;;;8.40;5.70;;;11.50;99.90;;;;;;5087923;28;20486;-68
2023/05/16 07:44:54;;;;;;;7.43;5.63;;;11.70;99.90;;;;;;5087698;28;20518;-69
2023/05/16 07:47:21;;;;;;;12.00;5.13;;;11.90;99.90;;;;;;5086281;28;20954;-69
2023/05/16 07:49:48;;;;;;;7.00;5.57;;;12.00;99.90;;;;;;5086671;28;20470;-68
2023/05/16 07:52:15;;;;;;;7.77;5.77;;;12.00;99.90;;;;;;5083705;28;20486;-69
2023/05/16 07:54:41;;;;;;;7.10;5.13;;;12.00;99.90;;;;;;5088426;28;20454;-69
2023/05/16 07:57:08;;;;;;;8.63;5.30;;;12.00;99.90;;;;;;5088306;28;20454;-69
2023/05/16 07:59:37;;;;;;;9.70;5.03;;;12.10;99.90;;;;;;5088528;28;20478;-69
2023/05/16 08:02:04;;;;;;;5.20;4.70;;;12.20;99.90;;;;;;5088543;28;20914;-70
2023/05/16 08:04:31;;;;;;;7.50;4.57;;;12.10;99.90;;;;;;5087631;28;20484;-69
2023/05/16 08:06:58;;;;;;;7.37;5.07;;;12.30;99.90;;;;;;5088287;28;20545;-69
2023/05/16 08:09:25;;;;;;;7.53;3.80;;;12.30;99.90;;;;;;5089050;28;20448;-69
2023/05/16 08:11:52;;;;;;;6.03;3.93;;;12.30;99.90;;;;;;5087299;28;20454;-70
2023/05/16 08:14:20;;;;;;;5.90;4.03;;;12.30;99.90;;;;;;5084111;28;20484;-69
2023/05/16 08:16:48;;;;;;;4.80;4.33;;;11.90;99.90;;;;;;5085800;28;21006;-69
2023/05/16 08:19:15;;;;;;;6.60;4.30;;;11.90;99.90;;;;;;5086178;28;20500;-69
2023/05/16 08:21:42;;;;;;;7.50;4.20;;;11.90;99.90;;;;;;5089626;28;20447;-69
2023/05/16 08:24:10;;;;;;;4.07;3.70;;;11.90;99.90;;;;;;5082418;28;20480;-69
2023/05/16 08:26:37;;;;;;;5.60;3.83;;;11.70;99.90;;;;;;5082717;28;20942;-69
2023/05/16 08:29:04;;;;;;;4.40;3.80;;;11.50;99.90;;;;;;5082749;28;20454;-69
2023/05/16 08:31:31;;;;;;;10.00;4.50;;;11.50;99.90;;;;;;5083277;28;20454;-69
2023/05/16 08:34:00;;;;;;;7.37;4.20;;;11.60;99.90;;;;;;5083730;28;20482;-69
2023/05/16 08:36:27;;;;;;;4.10;3.70;;;11.70;99.90;;;;;;5085972;28;20451;-69
2023/05/16 08:38:55;;;;;;;4.70;3.70;;;11.70;99.90;;;;;;5086413;28;20497;-69
2023/05/16 08:41:22;;;;;;;4.63;3.40;;;11.80;99.90;;;;;;5086209;28;20541;-70
2023/05/16 08:43:49;;;;;;;4.40;3.23;;;12.00;99.90;;;;;;5086657;28;20497;-69
2023/05/16 08:46:21;;;;;;;5.50;2.90;;;12.00;99.90;;;;;;5084248;28;20454;-68
2023/05/16 08:48:52;;;;;;;5.83;3.10;;;12.00;99.90;;;;;;5082572;28;20441;-68
2023/05/16 08:51:21;;;;;;;5.70;5.07;;;11.90;99.90;;;;;;5085696;28;20942;-69
2023/05/16 08:53:54;;;;;;;3.53;2.80;;;11.90;99.90;;;;;;5087225;28;20827;-69
2023/05/16 08:56:22;;;;;;;5.53;2.90;;;11.90;99.90;;;;;;5087152;28;20469;-69
2023/05/16 08:58:50;;;;;;;5.23;3.07;;;12.00;99.90;;;;;;5084050;28;20550;-68
2023/05/16 09:01:19;;;;;;;4.17;2.53;;;12.00;99.90;;;;;;5082181;28;20469;-68
2023/05/16 09:03:47;;;;;;;4.63;2.50;;;11.80;99.90;;;;;;5083668;28;20459;-68
2023/05/16 09:06:14;;;;;;;5.40;2.93;;;11.80;99.90;;;;;;5084101;28;20537;-68
2023/05/16 09:08:43;;;;;;;3.80;2.57;;;11.80;99.90;;;;;;5083370;28;20545;-69
2023/05/16 09:11:10;;;;;;;4.60;2.53;;;11.90;99.90;;;;;;5084903;28;20484;-68
2023/05/16 09:13:37;;;;;;;5.37;2.60;;;12.00;99.90;;;;;;5081417;28;20513;-69
2023/05/16 09:16:12;;;;;;;3.37;2.50;;;12.10;99.90;;;;;;5083675;28;20454;-68
2023/05/16 09:18:39;;;;;;;4.40;2.40;;;12.30;99.90;;;;;;5082849;28;20488;-70
2023/05/16 09:21:07;;;;;;;6.33;2.23;;;12.20;99.90;;;;;;5083729;28;20522;-69
2023/05/16 09:23:34;;;;;;;3.50;2.40;;;12.20;99.90;;;;;;5083387;28;20496;-69
2023/05/16 09:26:03;;;;;;;5.40;2.53;;;12.20;99.90;;;;;;5082136;28;20454;-69
2023/05/16 09:28:30;;;;;;;5.87;3.20;;;12.10;99.90;;;;;;5085120;28;20469;-69
2023/05/16 09:30:59;;;;;;;4.47;2.73;;;12.20;99.90;;;;;;5081509;28;20550;-68
2023/05/16 09:33:28;;;;;;;6.70;2.77;;;12.30;99.90;;;;;;5082161;28;20465;-68
2023/05/16 09:35:56;;;;;;;3.80;2.30;;;12.30;99.90;;;;;;5083940;28;20458;-68
2023/05/16 09:38:25;;;;;;;2.90;2.03;;;12.40;99.90;;;;;;5083529;28;20556;-69
2023/05/16 09:40:52;;;;;;;4.10;2.40;;;12.50;99.90;;;;;;5085416;28;20454;-69
2023/05/16 09:43:25;;;;;;;4.27;2.20;;;12.50;99.90;;;;;;5086656;28;20511;-69
2023/05/16 09:45:54;;;;;;;4.60;2.73;;;12.70;99.90;;;;;;5084522;28;20506;-69
2023/05/16 09:48:22;;;;;;;9.13;2.47;;;12.80;99.90;;;;;;5084690;28;20459;-69
2023/05/16 09:50:52;;;;;;;4.00;2.30;;;12.70;99.90;;;;;;5086443;28;20498;-69
2023/05/16 09:53:25;;;;;;;5.23;2.03;;;12.80;99.90;;;;;;5085725;28;20486;-69
2023/05/16 09:56:00;;;;;;;2.87;2.10;;;12.80;99.90;;;;;;5083932;28;20445;-69
2023/05/16 09:58:30;;;;;;;5.07;2.50;;;12.70;99.90;;;;;;5083926;28;20533;-69
2023/05/16 10:00:58;;;;;;;5.37;2.00;;;12.60;99.90;;;;;;5085199;28;20536;-69
2023/05/16 10:03:26;;;;;;;3.93;2.80;;;12.50;99.90;;;;;;5083789;28;20452;-69
2023/05/16 10:05:53;;;;;;;5.07;2.70;;;12.40;99.90;;;;;;5085375;28;20915;-69
2023/05/16 10:08:22;;;;;;;6.90;2.90;;;12.50;99.90;;;;;;5086742;28;20525;-69
2023/05/16 10:10:52;;;;;;;4.03;2.70;;;12.40;99.90;;;;;;5086969;28;20442;-69
2023/05/16 10:13:20;;;;;;;5.10;2.47;;;12.50;99.90;;;;;;5086099;28;20519;-68
2023/05/16 10:15:49;;;;;;;7.90;2.67;;;12.50;99.90;;;;;;5082890;28;20521;-69
2023/05/16 10:18:18;;;;;;;4.13;2.60;;;12.40;99.90;;;;;;5085350;28;20453;-69
2023/05/16 10:20:49;;;;;;;4.10;2.90;;;12.50;99.90;;;;;;5084127;28;20489;-70
2023/05/16 10:23:18;;;;;;;9.73;3.07;;;12.40;99.90;;;;;;5086331;28;20468;-69
2023/05/16 10:25:47;;;;;;;6.43;2.90;;;12.50;99.90;;;;;;5088970;28;20450;-69
2023/05/16 10:28:15;;;;;;;7.17;3.97;;;12.50;99.90;;;;;;5086961;28;20457;-69
2023/05/16 10:30:43;;;;;;;7.77;3.50;;;12.50;99.90;;;;;;5086923;28;20537;-71
2023/05/16 10:33:13;;;;;;;5.67;3.20;;;12.50;99.90;;;;;;5085870;28;20450;-70
2023/05/16 10:35:40;;;;;;;6.07;3.33;;;12.40;99.90;;;;;;5086420;28;20458;-68
2023/05/16 10:38:09;;;;;;;15.40;3.70;;;12.50;99.90;;;;;;5086762;28;20942;-70
2023/05/16 10:40:37;;;;;;;7.90;3.47;;;12.50;99.90;;;;;;5089413;28;20466;-70
2023/05/16 10:43:05;;;;;;;8.60;3.27;;;12.60;99.90;;;;;;5088523;28;20459;-69
2023/05/16 10:45:32;;;;;;;6.90;2.70;;;12.80;99.90;;;;;;5084609;28;20940;-69
2023/05/16 10:48:03;;;;;;;6.63;3.17;;;12.80;99.90;;;;;;5085375;28;20524;-69
2023/05/16 10:50:40;;;;;;;7.30;3.23;;;12.50;99.90;;;;;;5089387;28;20438;-70
2023/05/16 10:53:19;;;;;;;5.07;3.20;;;12.50;99.90;;;;;;5084778;28;20516;-68
2023/05/16 10:55:50;;;;;;;11.80;3.47;;;12.60;99.90;;;;;;5086173;28;20496;-68
2023/05/16 10:58:25;;;;;;;7.23;3.00;;;12.60;99.90;;;;;;5086451;28;20442;-70
2023/05/16 11:01:20;;;;;;;9.63;3.37;;;12.40;99.90;;;;;;5084767;28;20478;-69
2023/05/16 11:04:07;;;;;;;11.50;5.53;;;12.50;99.90;;;;;;5085977;28;20897;-69
2023/05/16 11:06:44;;;;;;;10.90;3.90;;;12.40;99.90;;;;;;5083861;28;20437;-69
2023/05/16 11:09:22;;;;;;;13.20;3.90;;;12.50;99.90;;;;;;5082856;28;20492;-70
2023/05/16 11:11:56;;;;;;;7.67;4.10;;;12.50;99.90;;;;;;5084001;28;20434;-69
2023/05/16 11:14:24;;;;;;;9.73;7.00;;;12.70;99.90;;;;;;5082111;28;20431;-70
2023/05/16 11:16:52;;;;;;;5.97;2.80;;;12.80;99.90;;;;;;5084191;28;20476;-69
2023/05/16 11:19:30;;;;;;;5.33;2.47;;;12.90;99.90;;;;;;5084226;28;20474;-69
2023/05/16 11:22:27;;;;;;;11.23;3.33;;;12.90;99.90;;;;;;5084679;28;20522;-69
2023/05/16 11:24:57;;;;;;;8.50;2.40;;;13.00;99.90;;;;;;5082346;28;20509;-69
2023/05/16 11:27:29;;;;;;;10.23;4.60;;;13.10;99.90;;;;;;5083570;28;20541;-69
2023/05/16 11:30:03;;;;;;;6.10;2.47;;;13.10;99.90;;;;;;5082130;28;20445;-69
2023/05/16 11:32:31;;;;;;;6.97;2.10;;;13.20;99.90;;;;;;5080898;28;20470;-69
2023/05/16 11:34:58;;;;;;;5.27;2.37;;;13.20;99.90;;;;;;5082186;28;20497;-69
2023/05/16 11:37:26;;;;;;;9.50;2.63;;;13.10;99.90;;;;;;5082725;28;20450;-68
2023/05/16 11:39:53;;;;;;;15.43;2.83;;;13.00;99.90;;;;;;5084504;28;20482;-69
2023/05/16 11:42:20;;;;;;;8.63;2.83;;;13.10;99.90;;;;;;5082986;28;20489;-68
2023/05/16 11:44:47;;;;;;;7.33;2.33;;;13.00;99.90;;;;;;5082572;28;20970;-69
2023/05/16 11:47:14;;;;;;;8.37;3.13;;;13.10;99.90;;;;;;5083331;28;20488;-69
2023/05/16 11:49:42;;;;;;;4.93;2.30;;;12.90;99.90;;;;;;5085611;28;20481;-69
2023/05/16 11:52:09;;;;;;;4.70;2.27;;;13.00;99.90;;;;;;5083343;28;20454;-70
2023/05/16 11:54:38;;;;;;;5.60;2.50;;;13.10;99.90;;;;;;5083474;28;20545;-69
2023/05/16 11:57:05;;;;;;;5.67;2.20;;;13.30;99.90;;;;;;5082688;28;20458;-69
2023/05/16 11:59:32;;;;;;;8.20;2.80;;;13.40;99.90;;;;;;5081975;28;20485;-70
2023/05/16 12:02:04;;;;;;;5.87;2.03;;;13.50;99.90;;;;;;5082872;28;20464;-70
2023/05/16 12:04:31;;;;;;;10.60;3.70;;;13.50;99.90;;;;;;5084452;28;20446;-69
2023/05/16 12:07:00;;;;;;;7.00;2.57;;;13.50;99.90;;;;;;5083937;28;20839;-69
2023/05/16 12:09:28;;;;;;;7.43;2.97;;;13.50;99.90;;;;;;5083738;28;20469;-69
2023/05/16 12:11:56;;;;;;;9.43;2.60;;;13.60;99.90;;;;;;5083287;28;20533;-69
2023/05/16 12:14:24;;;;;;;8.37;2.77;;;13.70;99.90;;;;;;5082843;28;20522;-69
2023/05/16 12:16:52;;;;;;;9.07;2.87;;;13.80;99.90;;;;;;5081587;28;20454;-70
2023/05/16 12:19:20;;;;;;;8.00;2.37;;;14.00;99.90;;;;;;5080263;28;20529;-68
2023/05/16 12:21:47;;;;;;;5.63;1.93;;;14.20;99.90;;;;;;5080974;28;20514;-69
2023/05/16 12:24:14;;;;;;;10.03;2.23;;;14.00;99.90;;;;;;5084310;28;20465;-69
2023/05/16 12:26:43;;;;;;;4.80;1.73;;;14.00;99.90;;;;;;5082355;28;20517;-69
2023/05/16 12:29:11;;;;;;;7.40;2.27;;;14.30;99.90;;;;;;5080983;28;20519;-70
2023/05/16 12:31:40;;;;;;;6.70;2.10;;;15.20;99.90;;;;;;5082082;28;20474;-69
2023/05/16 12:34:17;;;;;;;9.50;2.30;;;15.30;99.90;;;;;;5081026;28;20910;-69
2023/05/16 12:36:44;;;;;;;6.40;2.00;;;15.20;99.90;;;;;;5081699;28;20523;-69
2023/05/16 12:39:12;;;;;;;6.67;1.70;;;14.80;99.90;;;;;;5082179;28;20493;-69
2023/05/16 12:41:41;;;;;;;7.03;2.03;;;14.80;99.90;;;;;;5082295;28;20517;-68